INFORMACIÓN METAR y TAF
METAR FOR GCGM
ADDS - METARS form results

(1510 UTC 30 May 2020)
Data provider http://aviationweather.gov/metar/data/
 
METAR text: GCGM 301500Z AUTO 19003KT 130V240 9999 BKN036 BKN046 22/15 Q1014 RMK R09/17003KT 080V230 ARP/18003KT 130V230
Conditions at: GCGM (LA GOMERA ARPT , ES) observed 1500 UTC 30 May 2020
Temperature: 22.0°C (72°F)
Dewpoint: 15.0°C (59°F) [RH = 65%]
Pressure (altimeter): 29.94 inches Hg (1014.0 mb)
Winds: from the S (190 degrees) at 3 MPH (3 knots; 1.5 m/s)
Visibility: 6 or more miles (10+ km)
Ceiling: 3600 feet AGL
Clouds: broken clouds at 3600 feet AGL
broken clouds at 4600 feet AGL
Weather: no significant weather observed at this time

METAR text: GCGM 301430Z AUTO 18003KT 120V280 9999 BKN037 OVC044 22/15 Q1014 RMK R09/VRB02KT ARP/VRB02KT
Conditions at: GCGM (LA GOMERA ARPT , ES) observed 1430 UTC 30 May 2020
Temperature: 22.0°C (72°F)
Dewpoint: 15.0°C (59°F) [RH = 65%]
Pressure (altimeter): 29.94 inches Hg (1014.0 mb)
Winds: from the S (180 degrees) at 3 MPH (3 knots; 1.5 m/s)
Visibility: 6 or more miles (10+ km)
Ceiling: 3700 feet AGL
Clouds: broken clouds at 3700 feet AGL
overcast cloud deck at 4400 feet AGL
Weather: no significant weather observed at this time

Forecast for: GCGM (LA GOMERA ARPT , ES)
Text: TAF GCGM 301400Z 3015/3115 22007KT 9999 FEW030 TX25/3114Z TN18/3106Z
Forecast period: 1500 UTC 30 May 2020 to 1500 UTC 31 May 2020
Forecast type: FROM: standard forecast or significant change
Winds: from the SW (220 degrees) at 8 MPH (7 knots; 3.6 m/s)
Visibility: 6 or more miles 10+ km)
Ceiling: at least 12,000 feet AGL
Clouds: few clouds at 3000 feet AGL
Weather: no significant weather forecast for this period

 MAPA DE AEROPUERTO

 INFORMACIÓN DE PISTA
Pista 09 Longitud 4921 ft Ancho 98 ft
Elevación 716 ft Umbral desplazado 0 ft Rumbo de pista 81
Pista 27 Longitud 4921 ft Ancho 98 ft
Elevación 712 ft Umbral desplazado 0 ft Rumbo de pista 261

 FRECUANCIAS DEL AEROPUERTO
Tipo GND Nombre GND Frecuencia 121.7 MHZ
Tipo TWR Nombre TWR Frecuencia 118.4 MHZ

 RADIO AYUDAS DEL AEROPUERTO
Tipo VOR-DME Nombre La Gomera Frecuencia 116000 KHZ



Powered by Virtual Airlines Manager [v2.6.2]